createdAt,value
2019-02-25T00:00:50.523Z,1.60
2019-02-25T00:03:19.539Z,1.60
2019-02-25T00:05:48.548Z,1.70
2019-02-25T00:08:17.527Z,1.60
2019-02-25T00:10:46.459Z,1.50
2019-02-25T00:13:15.349Z,1.50
2019-02-25T00:15:44.183Z,1.40
2019-02-25T00:18:13.150Z,1.40
2019-02-25T00:20:42.135Z,1.30
2019-02-25T00:23:11.059Z,1.40
2019-02-25T00:25:39.956Z,1.40
2019-02-25T00:28:08.878Z,1.40
2019-02-25T00:30:37.814Z,1.30
2019-02-25T00:33:06.723Z,1.40
2019-02-25T00:35:35.633Z,1.40
2019-02-25T00:38:04.650Z,1.40
2019-02-25T00:40:33.465Z,1.30
2019-02-25T00:43:02.311Z,1.30
2019-02-25T00:45:31.230Z,1.30
2019-02-25T00:48:00.147Z,1.40
2019-02-25T00:50:29.116Z,1.30
2019-02-25T00:52:58.044Z,1.40
2019-02-25T00:55:26.957Z,1.30
2019-02-25T00:57:55.794Z,1.20
2019-02-25T01:00:24.741Z,1.10
2019-02-25T01:02:53.808Z,1.10
2019-02-25T01:05:22.715Z,1.00
2019-02-25T01:07:51.574Z,1.00
2019-02-25T01:10:20.939Z,1.00
2019-02-25T01:12:49.770Z,0.90
2019-02-25T01:15:18.750Z,0.90
2019-02-25T01:17:47.597Z,0.80
2019-02-25T01:20:16.624Z,0.80
2019-02-25T01:22:45.612Z,0.80
2019-02-25T01:25:14.628Z,0.70
2019-02-25T01:27:43.473Z,0.60
2019-02-25T01:30:12.897Z,0.60
2019-02-25T01:32:41.811Z,0.40
2019-02-25T01:35:11.578Z,0.30
2019-02-25T01:37:40.581Z,0.30
2019-02-25T01:40:09.973Z,0.10
2019-02-25T01:42:38.971Z,0.10
2019-02-25T01:45:09.577Z,0.10
2019-02-25T01:47:38.495Z,0.10
2019-02-25T01:50:07.920Z,0.20
2019-02-25T01:52:36.759Z,0.20
2019-02-25T01:55:05.891Z,0.20
2019-02-25T01:57:34.733Z,0.20
2019-02-25T02:00:03.845Z,0.30
2019-02-25T02:02:32.768Z,0.30
2019-02-25T02:05:01.614Z,0.20
2019-02-25T02:07:30.529Z,0.30
2019-02-25T02:09:59.454Z,0.30
2019-02-25T02:12:28.291Z,0.30
2019-02-25T02:14:57.187Z,0.40
2019-02-25T02:17:26.023Z,0.30
2019-02-25T02:19:54.840Z,0.30
2019-02-25T02:22:23.711Z,0.20
2019-02-25T02:24:52.560Z,0.20
2019-02-25T02:27:21.364Z,0.10
2019-02-25T02:29:50.200Z,0.00
2019-02-25T02:32:19.055Z,0.10
2019-02-25T02:34:47.930Z,0.00
2019-02-25T02:37:16.756Z,0.00
2019-02-25T02:39:45.596Z,0.00
2019-02-25T02:42:18.977Z,0.00
2019-02-25T02:44:50.182Z,0.00
2019-02-25T02:47:51.980Z,0.10
2019-02-25T02:50:22.987Z,0.00
2019-02-25T02:52:51.901Z,0.10
2019-02-25T02:55:20.886Z,0.00
2019-02-25T02:57:49.794Z,-0.20
2019-02-25T03:00:19.130Z,-0.20
2019-02-25T03:02:48.043Z,-0.30
2019-02-25T03:05:17.660Z,-0.30
2019-02-25T03:07:46.687Z,-0.30
2019-02-25T03:10:17.221Z,-0.20
2019-02-25T03:12:46.227Z,-0.20
2019-02-25T03:15:16.785Z,-0.10
2019-02-25T03:17:45.751Z,-0.20
2019-02-25T03:20:14.776Z,-0.10
2019-02-25T03:22:43.585Z,-0.10
2019-02-25T03:25:14.089Z,-0.10
2019-02-25T03:27:43.096Z,-0.10
2019-02-25T03:30:19.439Z,-0.20
2019-02-25T03:32:48.447Z,-0.10
2019-02-25T03:35:17.495Z,0.00
2019-02-25T03:37:46.459Z,0.00
2019-02-25T03:40:16.922Z,0.00
2019-02-25T03:42:45.880Z,0.00
2019-02-25T03:45:16.120Z,0.00
2019-02-25T03:47:45.185Z,0.00
2019-02-25T03:50:14.302Z,-0.10
2019-02-25T03:52:43.311Z,0.00
2019-02-25T03:55:14.156Z,-0.10
2019-02-25T03:57:43.232Z,-0.10
2019-02-25T04:00:14.828Z,-0.10
2019-02-25T04:02:43.803Z,-0.10
2019-02-25T04:05:12.802Z,0.00
2019-02-25T04:07:41.783Z,0.00
2019-02-25T04:10:11.156Z,-0.10
2019-02-25T04:12:40.067Z,-0.10
2019-02-25T04:15:11.521Z,-0.10
2019-02-25T04:17:40.502Z,-0.10
2019-02-25T04:20:11.438Z,-0.30
2019-02-25T04:22:40.281Z,-0.40
2019-02-25T04:25:09.250Z,-0.50
2019-02-25T04:27:38.259Z,-0.60
2019-02-25T04:30:09.103Z,-0.60
2019-02-25T04:32:37.937Z,-0.60
2019-02-25T04:35:07.787Z,-0.60
2019-02-25T04:37:36.623Z,-0.60
2019-02-25T04:40:06.056Z,-0.60
2019-02-25T04:42:34.977Z,-0.60
2019-02-25T04:45:03.897Z,-0.60
2019-02-25T04:47:32.747Z,-0.60
2019-02-25T04:50:01.582Z,-0.70
2019-02-25T04:52:30.419Z,-0.70
2019-02-25T04:54:59.248Z,-0.70
2019-02-25T04:57:28.129Z,-0.70
2019-02-25T04:59:57.049Z,-0.70
2019-02-25T05:02:25.907Z,-0.70
2019-02-25T05:04:54.738Z,-0.70
2019-02-25T05:07:23.642Z,-0.70
2019-02-25T05:09:52.495Z,-0.70
2019-02-25T05:12:21.525Z,-0.60
2019-02-25T05:14:50.365Z,-0.60
2019-02-25T05:17:19.341Z,-0.60
2019-02-25T05:19:48.296Z,-0.60
2019-02-25T05:22:17.150Z,-0.80
2019-02-25T05:24:46.015Z,-0.70
2019-02-25T05:27:14.942Z,-0.70
2019-02-25T05:29:43.841Z,-0.80
2019-02-25T05:32:12.751Z,-0.80
2019-02-25T05:34:41.585Z,-0.80
2019-02-25T05:37:10.494Z,-0.80
2019-02-25T05:39:39.326Z,-0.90
2019-02-25T05:42:08.227Z,-0.90
2019-02-25T05:44:37.071Z,-0.80
2019-02-25T05:47:05.978Z,-0.80
2019-02-25T05:49:34.891Z,-0.80
2019-02-25T05:52:03.735Z,-0.70
2019-02-25T05:54:32.577Z,-0.80
2019-02-25T05:57:01.563Z,-0.80
2019-02-25T05:59:30.422Z,-0.70
2019-02-25T06:01:59.318Z,-0.70
2019-02-25T06:04:28.172Z,-0.60
2019-02-25T06:06:56.976Z,-0.60
2019-02-25T06:09:25.844Z,-0.60
2019-02-25T06:11:54.744Z,-0.60
2019-02-25T06:14:23.581Z,-0.60
2019-02-25T06:16:52.492Z,-0.60
2019-02-25T06:19:21.311Z,-0.50
2019-02-25T06:21:50.154Z,-0.50
2019-02-25T06:24:19.069Z,-0.50
2019-02-25T06:26:47.897Z,-0.50
2019-02-25T06:29:16.742Z,-0.50
2019-02-25T06:31:45.723Z,-0.40
2019-02-25T06:34:15.282Z,-0.40
2019-02-25T06:36:44.250Z,-0.40
2019-02-25T06:39:13.181Z,-0.40
2019-02-25T06:41:42.316Z,-0.30
2019-02-25T06:44:11.294Z,-0.30
2019-02-25T06:46:40.135Z,-0.30
2019-02-25T06:49:09.048Z,-0.30
2019-02-25T06:51:37.902Z,-0.30
2019-02-25T06:54:06.752Z,-0.20
2019-02-25T06:56:35.575Z,-0.20
2019-02-25T06:59:04.567Z,-0.10
2019-02-25T07:01:33.459Z,0.00
2019-02-25T07:04:19.845Z,0.10
2019-02-25T07:07:02.127Z,0.40
2019-02-25T07:09:38.917Z,0.70
2019-02-25T07:12:27.022Z,1.10
2019-02-25T07:15:02.184Z,1.30
2019-02-25T07:17:37.499Z,1.20
2019-02-25T07:20:25.818Z,1.10
2019-02-25T07:23:00.384Z,1.00
2019-02-25T07:25:44.798Z,0.70
2019-02-25T07:28:36.680Z,0.80
2019-02-25T07:31:33.264Z,1.10
2019-02-25T07:34:27.225Z,1.40
2019-02-25T07:37:07.727Z,1.70
2019-02-25T07:39:46.451Z,1.80
2019-02-25T07:42:35.447Z,2.00
2019-02-25T07:45:24.129Z,2.20
2019-02-25T07:48:04.704Z,2.40
2019-02-25T07:50:55.568Z,2.60
2019-02-25T07:53:41.886Z,2.70
2019-02-25T07:56:20.517Z,2.80
2019-02-25T07:59:06.866Z,2.80
2019-02-25T08:01:57.899Z,2.80
2019-02-25T08:04:44.288Z,2.80
2019-02-25T08:07:27.227Z,2.80
2019-02-25T08:10:20.844Z,2.90
2019-02-25T08:12:56.977Z,3.20
2019-02-25T08:15:41.243Z,3.80
2019-02-25T08:18:31.004Z,4.30
2019-02-25T08:21:17.373Z,4.60
2019-02-25T08:23:57.586Z,4.90
2019-02-25T08:26:40.257Z,5.10
2019-02-25T08:29:16.699Z,5.50
2019-02-25T08:32:07.907Z,5.80
2019-02-25T08:34:51.823Z,6.00
2019-02-25T08:37:56.862Z,6.50
2019-02-25T08:40:38.905Z,6.80
2019-02-25T08:43:44.501Z,7.10
2019-02-25T08:46:29.861Z,7.30
2019-02-25T08:49:05.339Z,7.70
2019-02-25T08:51:34.299Z,8.00
2019-02-25T08:54:03.321Z,8.10
2019-02-25T08:56:32.295Z,8.10
2019-02-25T08:59:01.239Z,8.20
2019-02-25T09:01:30.220Z,8.30
2019-02-25T09:03:59.055Z,8.50
2019-02-25T09:06:27.990Z,8.70
2019-02-25T09:08:56.844Z,8.90
2019-02-25T09:11:25.914Z,9.00
2019-02-25T09:13:54.939Z,9.20
2019-02-25T09:16:23.784Z,9.50
2019-02-25T09:18:52.619Z,9.90
2019-02-25T09:21:21.591Z,10.30
2019-02-25T09:23:50.403Z,10.70
2019-02-25T09:26:19.322Z,11.00
2019-02-25T09:28:48.235Z,11.40
2019-02-25T09:31:17.113Z,11.80
2019-02-25T09:33:46.010Z,12.10
2019-02-25T09:36:14.850Z,12.50
2019-02-25T09:38:43.746Z,12.80
2019-02-25T09:41:12.731Z,13.10
2019-02-25T09:43:41.562Z,13.80
2019-02-25T09:46:10.485Z,14.50
2019-02-25T09:48:39.296Z,14.90
2019-02-25T09:51:08.138Z,15.20
2019-02-25T09:53:36.947Z,15.50
2019-02-25T09:56:05.816Z,15.90
2019-02-25T09:58:34.642Z,16.00
2019-02-25T10:01:03.856Z,16.30
2019-02-25T10:03:32.679Z,16.50
2019-02-25T10:06:01.597Z,16.70
2019-02-25T10:08:30.497Z,16.90
2019-02-25T10:10:59.343Z,17.20
2019-02-25T10:13:28.239Z,17.20
2019-02-25T10:15:57.172Z,17.10
2019-02-25T10:18:26.015Z,17.30
2019-02-25T10:20:54.860Z,17.30
2019-02-25T10:23:23.700Z,17.10
2019-02-25T10:25:52.553Z,16.80
2019-02-25T10:28:21.384Z,16.60
2019-02-25T10:30:52.945Z,16.90
2019-02-25T10:33:20.921Z,17.00
2019-02-25T10:35:49.751Z,17.30
2019-02-25T10:38:19.510Z,16.80
2019-02-25T10:40:49.620Z,17.00
2019-02-25T10:43:19.774Z,17.50
2019-02-25T10:45:48.691Z,17.80
2019-02-25T10:48:19.483Z,18.10
2019-02-25T10:50:55.728Z,18.10
2019-02-25T10:53:20.288Z,17.40
2019-02-25T10:56:16.742Z,17.30
2019-02-25T10:58:46.308Z,17.40
2019-02-25T11:01:17.599Z,17.70
2019-02-25T11:03:47.761Z,17.70
2019-02-25T11:06:16.321Z,17.70
2019-02-25T11:08:49.188Z,18.00
2019-02-25T11:11:22.671Z,18.10
2019-02-25T11:13:51.535Z,17.90
2019-02-25T11:16:20.534Z,17.80
2019-02-25T11:18:50.649Z,17.70
2019-02-25T11:21:20.071Z,17.70
2019-02-25T11:23:49.555Z,17.70
2019-02-25T11:26:19.464Z,17.30
2019-02-25T11:28:48.307Z,17.00
2019-02-25T11:31:18.175Z,16.70
2019-02-25T11:33:47.775Z,16.70
2019-02-25T11:36:17.766Z,17.10
2019-02-25T11:38:47.284Z,17.40
2019-02-25T11:41:16.191Z,17.60
2019-02-25T11:43:46.418Z,17.60
2019-02-25T11:46:15.643Z,17.50
2019-02-25T11:48:44.582Z,17.20
2019-02-25T11:51:13.574Z,17.60
2019-02-25T11:53:42.586Z,18.00
2019-02-25T11:56:11.477Z,18.10
2019-02-25T11:58:40.325Z,18.40
2019-02-25T12:01:09.335Z,18.50
2019-02-25T12:03:38.178Z,18.60
2019-02-25T12:06:07.191Z,18.40
2019-02-25T12:08:36.155Z,17.90
2019-02-25T12:11:05.301Z,17.70
2019-02-25T12:13:34.276Z,18.10
2019-02-25T12:16:03.254Z,17.90
2019-02-25T12:18:32.115Z,17.50
2019-02-25T12:21:01.116Z,17.40
2019-02-25T12:23:30.976Z,17.60
2019-02-25T12:25:59.794Z,17.80
2019-02-25T12:28:28.655Z,18.00
2019-02-25T12:30:57.563Z,18.20
2019-02-25T12:33:26.410Z,18.40
2019-02-25T12:35:55.323Z,18.60
2019-02-25T12:38:24.174Z,18.70
2019-02-25T12:40:53.146Z,18.70
2019-02-25T12:43:22.281Z,18.70
2019-02-25T12:45:51.276Z,18.70
2019-02-25T12:48:22.735Z,18.70
2019-02-25T12:50:51.875Z,18.70
2019-02-25T12:53:20.715Z,18.70
2019-02-25T12:55:49.547Z,18.70
2019-02-25T12:58:18.399Z,18.70
2019-02-25T13:00:47.276Z,18.90
2019-02-25T13:03:16.135Z,18.80
2019-02-25T13:05:45.098Z,18.90
2019-02-25T13:08:13.926Z,18.90
2019-02-25T13:10:42.781Z,18.90
2019-02-25T13:13:11.628Z,18.80
2019-02-25T13:15:40.440Z,18.90
2019-02-25T13:18:09.277Z,18.80
2019-02-25T13:20:38.114Z,18.70
2019-02-25T13:23:06.929Z,18.50
2019-02-25T13:25:35.856Z,18.60
2019-02-25T13:28:04.832Z,18.60
2019-02-25T13:30:33.764Z,18.20
2019-02-25T13:33:02.747Z,18.20
2019-02-25T13:35:31.769Z,18.30
2019-02-25T13:38:00.706Z,18.30
2019-02-25T13:40:29.686Z,18.10
2019-02-25T13:42:58.589Z,18.10
2019-02-25T13:45:27.515Z,18.20
2019-02-25T13:47:56.526Z,18.00
2019-02-25T13:50:25.674Z,18.10
2019-02-25T13:52:54.586Z,18.10
2019-02-25T13:55:23.972Z,18.20
2019-02-25T13:57:52.968Z,18.20
2019-02-25T14:00:22.231Z,18.00
2019-02-25T14:02:51.295Z,18.00
2019-02-25T14:05:21.088Z,18.00
2019-02-25T14:07:50.127Z,18.00
2019-02-25T14:10:19.207Z,17.90
2019-02-25T14:12:48.248Z,17.90
2019-02-25T14:15:18.064Z,17.90
2019-02-25T14:17:47.223Z,17.70
2019-02-25T14:20:17.347Z,17.60
2019-02-25T14:22:46.387Z,17.50
2019-02-25T14:25:19.772Z,17.40
2019-02-25T14:27:47.542Z,17.30
2019-02-25T14:30:19.170Z,17.30
2019-02-25T14:32:48.242Z,17.20
2019-02-25T14:35:17.525Z,17.20
2019-02-25T14:37:46.504Z,17.10
2019-02-25T14:40:17.142Z,17.10
2019-02-25T14:42:48.959Z,16.90
2019-02-25T14:45:21.609Z,16.80
2019-02-25T14:47:49.713Z,16.70
2019-02-25T14:50:19.459Z,16.60
2019-02-25T14:52:48.831Z,16.50
2019-02-25T14:55:17.934Z,16.50
2019-02-25T14:57:46.971Z,16.40
2019-02-25T15:00:23.395Z,16.30
2019-02-25T15:02:51.441Z,16.10
2019-02-25T15:05:21.482Z,16.00
2019-02-25T15:07:51.163Z,15.90
2019-02-25T15:10:20.900Z,15.80
2019-02-25T15:12:53.751Z,15.70
2019-02-25T15:15:20.840Z,15.70
2019-02-25T15:17:50.516Z,15.70
2019-02-25T15:20:21.530Z,15.60
2019-02-25T15:22:51.401Z,15.50
2019-02-25T15:25:20.504Z,15.40
2019-02-25T15:27:49.632Z,15.30
2019-02-25T15:30:22.707Z,15.20
2019-02-25T15:32:55.677Z,15.00
2019-02-25T15:35:26.500Z,15.00
2019-02-25T15:37:55.151Z,14.80
2019-02-25T15:40:25.084Z,14.80
2019-02-25T15:43:05.831Z,14.60
2019-02-25T15:45:37.869Z,14.50
2019-02-25T15:48:09.669Z,14.40
2019-02-25T15:50:38.817Z,14.30
2019-02-25T15:53:09.918Z,14.20
2019-02-25T15:55:40.125Z,14.10
2019-02-25T15:58:09.307Z,14.00
2019-02-25T16:00:38.576Z,14.00
2019-02-25T16:03:09.126Z,13.80
2019-02-25T16:05:39.039Z,13.70
2019-02-25T16:08:09.322Z,13.60
2019-02-25T16:10:38.336Z,13.60
2019-02-25T16:13:11.190Z,13.50
2019-02-25T16:15:38.686Z,13.50
2019-02-25T16:18:07.615Z,13.30
2019-02-25T16:20:36.675Z,13.30
2019-02-25T16:23:08.233Z,13.20
2019-02-25T16:25:37.002Z,13.00
2019-02-25T16:28:07.967Z,12.90
2019-02-25T16:30:36.935Z,12.70
2019-02-25T16:33:07.837Z,12.70
2019-02-25T16:35:37.292Z,12.60
2019-02-25T16:38:07.392Z,12.50
2019-02-25T16:40:38.368Z,12.40
2019-02-25T16:43:07.737Z,12.30
2019-02-25T16:45:39.525Z,12.20
2019-02-25T16:48:08.408Z,12.10
2019-02-25T16:50:39.199Z,12.00
2019-02-25T16:53:10.257Z,11.90
2019-02-25T16:55:40.474Z,11.80
2019-02-25T16:58:12.877Z,11.70
2019-02-25T17:00:41.758Z,11.50
2019-02-25T17:03:13.146Z,11.40
2019-02-25T17:05:42.878Z,11.30
2019-02-25T17:08:14.837Z,11.10
2019-02-25T17:10:43.846Z,11.00
2019-02-25T17:13:14.867Z,10.80
2019-02-25T17:15:45.987Z,10.70
2019-02-25T17:18:15.779Z,10.60
2019-02-25T17:20:45.147Z,10.50
2019-02-25T17:23:14.513Z,10.30
2019-02-25T17:25:43.720Z,10.20
2019-02-25T17:28:17.021Z,10.00
2019-02-25T17:30:45.076Z,9.90
2019-02-25T17:33:14.885Z,9.70
2019-02-25T17:35:45.309Z,9.50
2019-02-25T17:38:14.741Z,9.40
2019-02-25T17:40:44.083Z,9.30
2019-02-25T17:43:15.406Z,9.20
2019-02-25T17:45:44.795Z,9.10
2019-02-25T17:48:16.207Z,9.10
2019-02-25T17:50:45.640Z,9.00
2019-02-25T17:53:14.643Z,8.90
2019-02-25T17:55:43.760Z,8.80
2019-02-25T17:58:14.744Z,8.70
2019-02-25T18:00:44.500Z,8.60
2019-02-25T18:03:15.478Z,8.50
2019-02-25T18:05:44.713Z,8.40
2019-02-25T18:08:15.359Z,8.30
2019-02-25T18:10:45.529Z,8.10
2019-02-25T18:13:15.857Z,7.90
2019-02-25T18:15:47.687Z,7.80
2019-02-25T18:18:19.680Z,7.70
2019-02-25T18:20:48.375Z,7.60
2019-02-25T18:23:21.183Z,7.50
2019-02-25T18:25:53.593Z,7.30
2019-02-25T18:28:23.572Z,7.20
2019-02-25T18:30:53.087Z,7.10
2019-02-25T18:33:24.295Z,7.00
2019-02-25T18:35:54.380Z,6.80
2019-02-25T18:38:24.962Z,6.70
2019-02-25T18:40:55.679Z,6.70
2019-02-25T18:43:26.293Z,6.60
2019-02-25T18:45:56.273Z,6.50
2019-02-25T18:48:27.440Z,6.40
2019-02-25T18:50:58.979Z,6.30
2019-02-25T18:53:27.837Z,6.20
2019-02-25T18:55:56.946Z,6.10
2019-02-25T18:58:26.036Z,6.10
2019-02-25T19:00:57.068Z,6.10
2019-02-25T19:03:26.935Z,6.10
2019-02-25T19:05:57.511Z,6.10
2019-02-25T19:08:28.937Z,5.90
2019-02-25T19:10:57.650Z,5.90
2019-02-25T19:13:27.679Z,5.70
2019-02-25T19:15:59.131Z,5.40
2019-02-25T19:18:29.512Z,5.30
2019-02-25T19:20:59.680Z,5.20
2019-02-25T19:23:31.290Z,5.20
2019-02-25T19:26:00.170Z,5.20
2019-02-25T19:28:30.318Z,5.20
2019-02-25T19:30:59.375Z,5.10
2019-02-25T19:33:28.297Z,5.20
2019-02-25T19:35:58.909Z,5.20
2019-02-25T19:38:27.958Z,5.10
2019-02-25T19:40:57.627Z,5.00
2019-02-25T19:43:26.570Z,5.00
2019-02-25T19:45:57.130Z,5.00
2019-02-25T19:48:28.873Z,4.80
2019-02-25T19:50:58.519Z,4.80
2019-02-25T19:53:31.428Z,4.60
2019-02-25T19:55:58.269Z,4.40
2019-02-25T19:58:30.903Z,4.30
2019-02-25T20:01:00.999Z,4.30
2019-02-25T20:03:28.961Z,4.30
2019-02-25T20:05:59.057Z,4.30
2019-02-25T20:08:28.032Z,4.20
2019-02-25T20:10:57.065Z,4.10
2019-02-25T20:13:26.141Z,4.00
2019-02-25T20:15:55.861Z,4.00
2019-02-25T20:18:24.786Z,4.00
2019-02-25T20:20:55.101Z,3.90
2019-02-25T20:23:26.491Z,3.90
2019-02-25T20:25:55.672Z,3.90
2019-02-25T20:28:26.817Z,3.90
2019-02-25T20:30:55.977Z,3.80
2019-02-25T20:33:30.511Z,3.80
2019-02-25T20:35:56.743Z,3.70
2019-02-25T20:38:27.073Z,3.70
2019-02-25T20:40:57.845Z,3.60
2019-02-25T20:43:28.147Z,3.50
2019-02-25T20:45:59.313Z,3.40
2019-02-25T20:48:28.782Z,3.30
2019-02-25T20:50:59.672Z,3.20
2019-02-25T20:53:30.092Z,3.20
2019-02-25T20:55:58.969Z,3.10
2019-02-25T20:58:27.822Z,3.10
2019-02-25T21:00:56.754Z,3.20
2019-02-25T21:03:27.553Z,3.20
2019-02-25T21:05:56.237Z,3.20
2019-02-25T21:08:26.173Z,3.20
2019-02-25T21:10:55.114Z,3.20
2019-02-25T21:13:25.966Z,3.20
2019-02-25T21:15:54.552Z,3.20
2019-02-25T21:18:24.643Z,3.10
2019-02-25T21:20:54.018Z,3.00
2019-02-25T21:23:22.861Z,3.00
2019-02-25T21:25:55.442Z,2.90
2019-02-25T21:28:25.140Z,2.90
2019-02-25T21:30:53.111Z,2.80
2019-02-25T21:33:23.691Z,2.80
2019-02-25T21:35:52.733Z,2.90
2019-02-25T21:38:23.451Z,2.80
2019-02-25T21:40:52.693Z,2.70
2019-02-25T21:43:24.124Z,2.60
2019-02-25T21:45:54.882Z,2.60
2019-02-25T21:48:25.641Z,2.50
2019-02-25T21:50:58.118Z,2.50
2019-02-25T21:53:25.439Z,2.40
2019-02-25T21:55:55.516Z,2.20
2019-02-25T21:58:25.439Z,2.10
2019-02-25T22:00:55.546Z,2.10
2019-02-25T22:03:24.386Z,2.00
2019-02-25T22:05:54.065Z,1.90
2019-02-25T22:08:24.370Z,1.80
2019-02-25T22:10:54.499Z,1.80
2019-02-25T22:13:23.327Z,1.80
2019-02-25T22:15:52.352Z,1.90
2019-02-25T22:18:21.204Z,1.90
2019-02-25T22:20:51.448Z,2.00
2019-02-25T22:23:22.230Z,2.00
2019-02-25T22:25:51.008Z,2.00
2019-02-25T22:28:19.849Z,1.90
2019-02-25T22:30:49.809Z,1.80
2019-02-25T22:33:26.754Z,1.80
2019-02-25T22:35:51.757Z,1.60
2019-02-25T22:38:20.293Z,1.50
2019-02-25T22:40:50.977Z,1.40
2019-02-25T22:43:20.831Z,1.40
2019-02-25T22:45:49.739Z,1.30
2019-02-25T22:48:19.126Z,1.40
2019-02-25T22:50:51.284Z,1.40
2019-02-25T22:53:19.734Z,1.50
2019-02-25T22:55:49.910Z,1.50
2019-02-25T22:58:19.160Z,1.50
2019-02-25T23:00:50.213Z,1.50
2019-02-25T23:03:22.186Z,1.40
2019-02-25T23:05:50.878Z,1.40
2019-02-25T23:08:21.029Z,1.40
2019-02-25T23:10:51.659Z,1.40
2019-02-25T23:13:22.693Z,1.50
2019-02-25T23:15:53.489Z,1.50
2019-02-25T23:18:25.107Z,1.50
2019-02-25T23:20:54.986Z,1.50
2019-02-25T23:23:25.602Z,1.50
2019-02-25T23:25:55.916Z,1.60
2019-02-25T23:28:26.149Z,1.50
2019-02-25T23:30:55.969Z,1.60
2019-02-25T23:33:25.104Z,1.60
2019-02-25T23:35:55.937Z,1.60
2019-02-25T23:38:24.444Z,1.60
2019-02-25T23:40:53.264Z,1.50
2019-02-25T23:43:22.091Z,1.40
2019-02-25T23:45:50.954Z,1.30
2019-02-25T23:48:20.019Z,1.30
2019-02-25T23:50:50.412Z,1.20
2019-02-25T23:53:19.522Z,0.80
2019-02-25T23:55:50.049Z,0.70
2019-02-25T23:58:20.233Z,0.70
